SAZT/TDL METAR and TAF weather

Enter ICAO airport designator
Station Type Date Time Source
SAZT METAR 2019/06/25 14:25 UTC NOAA

SAZT 251425Z 23019G35KT CAVOK 06/M03 Q1007


Station Type Date Time Source
SAZT Decoded METAR 2019/06/25 14:25 UTC NOAA

Tandil Aerodrome, Argentina (SAZT) 37-14S 059-15W 175M
Jun 25, 2019 - 10:25 AM EDT / 2019.06.25 1425 UTC
Wind: from the SW (230 degrees) at 22 MPH (19 KT) gusting to 40 MPH (35 KT):0
Visibility: greater than 7 mile(s):0
Temperature: 42 F (6 C)
Dew Point: 26 F (-3 C)
Relative Humidity: 52%
Pressure (altimeter): 29.74 in. Hg (1007 hPa)
ob: SAZT 251425Z 23019G35KT CAVOK 06/M03 Q1007
cycle: 14

Station Type Date Time Source
SAZT TAF UTC NOAA

Error!

Example: see airport list